Time;durP1;ratioP1;P1;durP2;ratioP2;P2;SDS_P1;SDS_P2;PMS_P1;PMS_P2;Temp;Humidity;BMP_temperature;BMP_pressure;BME280_temperature;BME280_humidity;BME280_pressure;Samples;Min_cycle;Max_cycle;Signal;HPM_P1;HPM_P2
2021/10/24 00:01:03;;;;;;;0.40;0.30;;;;;;;7.07;100.00;102497.88;5075007;28;20445;-72
2021/10/24 00:03:29;;;;;;;0.40;0.30;;;;;;;7.18;100.00;102494.41;5075596;28;20499;-72
2021/10/24 00:05:56;;;;;;;0.40;0.33;;;;;;;7.21;100.00;102496.63;5075603;28;20468;-72
2021/10/24 00:08:22;;;;;;;1.47;1.37;;;;;;;7.25;100.00;102500.50;5075494;28;20465;-72
2021/10/24 00:10:49;;;;;;;0.40;0.20;;;;;;;7.29;100.00;102498.97;5075505;28;20484;-71
2021/10/24 00:13:17;;;;;;;0.40;0.20;;;;;;;7.32;100.00;102498.53;5075542;28;20438;-71
2021/10/24 00:15:44;;;;;;;0.40;0.30;;;;;;;7.38;100.00;102499.47;5075377;28;20441;-71
2021/10/24 00:18:10;;;;;;;0.40;0.30;;;;;;;7.37;100.00;102507.81;5075307;28;20468;-71
2021/10/24 00:20:37;;;;;;;0.40;0.20;;;;;;;7.39;100.00;102503.81;5074881;28;20468;-71
2021/10/24 00:23:03;;;;;;;0.40;0.30;;;;;;;7.37;100.00;102499.72;5075176;28;20935;-71
2021/10/24 00:25:30;;;;;;;0.40;0.30;;;;;;;7.39;100.00;102497.59;5075215;28;20448;-72
2021/10/24 00:27:56;;;;;;;0.40;0.30;;;;;;;7.34;100.00;102501.81;5074954;28;20859;-71
2021/10/24 00:30:24;;;;;;;0.80;0.80;;;;;;;7.28;100.00;102504.63;5075071;28;20484;-71
2021/10/24 00:32:51;;;;;;;0.40;0.30;;;;;;;7.22;100.00;102500.97;5075107;28;20438;-70
2021/10/24 00:35:17;;;;;;;0.40;0.30;;;;;;;7.20;100.00;102500.38;5075055;28;20464;-73
2021/10/24 00:37:44;;;;;;;0.40;0.30;;;;;;;7.30;100.00;102502.50;5075259;28;20862;-72
2021/10/24 00:40:11;;;;;;;0.40;0.30;;;;;;;7.28;100.00;102500.03;5075021;28;20440;-75
2021/10/24 00:42:45;;;;;;;0.40;0.30;;;;;;;7.33;100.00;102502.88;5074957;28;20441;-77
2021/10/24 00:45:11;;;;;;;0.40;0.20;;;;;;;7.29;100.00;102507.06;5074842;28;20426;-75
2021/10/24 00:47:39;;;;;;;0.40;0.30;;;;;;;7.30;100.00;102502.50;5074726;28;20476;-75
2021/10/24 00:50:06;;;;;;;0.40;0.23;;;;;;;7.23;100.00;102496.41;5074669;28;20488;-75
2021/10/24 00:52:33;;;;;;;0.40;0.30;;;;;;;7.21;100.00;102503.88;5074681;28;20453;-75
2021/10/24 00:54:59;;;;;;;0.40;0.30;;;;;;;7.19;100.00;102498.75;5074612;28;20452;-76
2021/10/24 00:57:26;;;;;;;0.40;0.20;;;;;;;7.12;99.43;102505.28;5074521;28;20492;-77
2021/10/24 00:59:52;;;;;;;0.40;0.30;;;;;;;7.08;99.84;102496.81;5074535;28;20437;-77
2021/10/24 01:02:19;;;;;;;0.40;0.30;;;;;;;7.08;99.62;102497.66;5074488;28;20449;-75
2021/10/24 01:04:47;;;;;;;0.40;0.30;;;;;;;7.03;99.30;102489.44;5074076;28;20814;-76
2021/10/24 01:07:17;;;;;;;0.40;0.30;;;;;;;6.96;99.14;102491.41;5074369;28;20461;-76
2021/10/24 01:09:45;;;;;;;0.40;0.23;;;;;;;6.95;99.71;102497.03;5074296;28;20476;-76
2021/10/24 01:12:12;;;;;;;0.40;0.30;;;;;;;6.96;99.48;102490.59;5072938;28;20461;-76
2021/10/24 01:14:39;;;;;;;0.40;0.30;;;;;;;6.91;99.54;102487.78;5074306;28;20795;-76
2021/10/24 01:17:05;;;;;;;0.40;0.30;;;;;;;6.87;98.94;102483.91;5074186;28;20465;-76
2021/10/24 01:19:31;;;;;;;0.40;0.20;;;;;;;6.87;99.20;102486.59;5060306;28;20480;-76
2021/10/24 01:21:59;;;;;;;0.40;0.27;;;;;;;6.92;99.45;102478.63;5054068;28;20453;-76
2021/10/24 01:24:26;;;;;;;0.40;0.20;;;;;;;6.95;100.00;102486.25;5053819;28;20940;-75
2021/10/24 01:26:54;;;;;;;0.40;0.30;;;;;;;6.89;100.00;102477.22;5053977;28;20458;-76
2021/10/24 01:29:21;;;;;;;1.43;1.33;;;;;;;6.83;100.00;102478.16;5053913;28;20576;-76
2021/10/24 01:31:47;;;;;;;2.00;1.90;;;;;;;6.88;100.00;102475.56;5053606;28;20438;-76
2021/10/24 01:34:14;;;;;;;0.40;0.30;;;;;;;6.83;100.00;102483.53;5053599;28;20952;-76
2021/10/24 01:36:40;;;;;;;0.40;0.30;;;;;;;6.88;100.00;102480.16;5053705;28;20504;-76
2021/10/24 01:39:08;;;;;;;0.40;0.30;;;;;;;6.83;100.00;102476.25;5053459;28;20496;-76
2021/10/24 01:41:35;;;;;;;0.40;0.30;;;;;;;6.85;100.00;102475.22;5053741;28;20468;-76
2021/10/24 01:44:02;;;;;;;0.40;0.30;;;;;;;6.86;100.00;102476.84;5053757;28;20451;-76
2021/10/24 01:46:29;;;;;;;2.20;2.10;;;;;;;6.82;100.00;102477.31;5053615;28;20558;-76
2021/10/24 01:48:55;;;;;;;0.40;0.30;;;;;;;6.76;100.00;102472.84;5053699;28;20454;-76
2021/10/24 01:51:22;;;;;;;0.40;0.30;;;;;;;6.73;100.00;102476.00;5053562;28;20505;-76
2021/10/24 01:53:49;;;;;;;0.40;0.20;;;;;;;6.72;100.00;102466.25;5055891;28;20438;-78
2021/10/24 01:56:17;;;;;;;0.40;0.30;;;;;;;6.53;98.90;102468.19;5055821;28;20455;-78
2021/10/24 01:58:45;;;;;;;0.40;0.30;;;;;;;6.46;99.61;102470.16;5055380;28;20473;-78
2021/10/24 02:01:12;;;;;;;0.40;0.30;;;;;;;6.37;99.66;102462.59;5057210;28;20438;-77
2021/10/24 02:03:38;;;;;;;0.40;0.23;;;;;;;6.30;99.62;102468.88;5057414;28;20442;-78
2021/10/24 02:06:05;;;;;;;0.40;0.30;;;;;;;6.29;100.00;102466.44;5061428;28;20455;-78
2021/10/24 02:08:32;;;;;;;1.77;1.67;;;;;;;6.31;99.80;102464.31;5058494;28;20454;-78
2021/10/24 02:10:59;;;;;;;0.40;0.27;;;;;;;6.31;98.55;102462.44;5055001;28;20887;-78
2021/10/24 02:13:27;;;;;;;0.40;0.30;;;;;;;6.22;98.15;102461.13;5055502;28;20816;-78
2021/10/24 02:15:53;;;;;;;0.40;0.30;;;;;;;6.20;98.73;102463.22;5054910;28;20450;-77
2021/10/24 02:18:20;;;;;;;0.40;0.30;;;;;;;6.29;98.46;102463.75;5054950;28;20471;-78
2021/10/24 02:20:47;;;;;;;0.40;0.27;;;;;;;6.23;99.38;102459.25;5054261;28;20454;-78
2021/10/24 02:23:13;;;;;;;2.20;1.70;;;;;;;6.22;99.63;102463.81;5053474;28;20986;-76
2021/10/24 02:25:40;;;;;;;0.40;0.30;;;;;;;6.22;99.95;102463.81;5053193;28;20437;-76
2021/10/24 02:28:06;;;;;;;0.40;0.23;;;;;;;6.18;100.00;102462.63;5053108;28;20465;-75
2021/10/24 02:30:35;;;;;;;0.40;0.30;;;;;;;6.18;100.00;102456.41;5052978;28;20488;-75
2021/10/24 02:33:02;;;;;;;3.17;2.97;;;;;;;6.19;100.00;102452.66;5052808;28;20927;-76
2021/10/24 02:35:28;;;;;;;0.40;0.30;;;;;;;6.19;100.00;102455.34;5053084;28;20435;-76
2021/10/24 02:37:55;;;;;;;0.40;0.30;;;;;;;6.12;99.50;102457.31;5053510;28;20533;-78
2021/10/24 02:40:22;;;;;;;0.40;0.30;;;;;;;6.14;100.00;102461.41;5055497;28;20439;-78
2021/10/24 02:42:49;;;;;;;0.40;0.30;;;;;;;6.07;100.00;102460.69;5053604;28;20442;-75
2021/10/24 02:45:16;;;;;;;0.40;0.20;;;;;;;5.97;100.00;102454.97;5052993;28;20444;-76
2021/10/24 02:47:44;;;;;;;0.40;0.30;;;;;;;5.98;99.62;102445.91;5052879;28;20470;-76
2021/10/24 02:50:10;;;;;;;0.40;0.27;;;;;;;5.88;99.45;102459.81;5052773;28;21003;-76
2021/10/24 02:52:37;;;;;;;0.40;0.30;;;;;;;5.87;99.55;102460.84;5052932;28;20519;-76
2021/10/24 02:55:05;;;;;;;0.40;0.30;;;;;;;5.77;98.68;102461.38;5055393;28;20453;-78
2021/10/24 02:57:31;;;;;;;0.40;0.30;;;;;;;5.66;98.77;102453.22;5055448;28;20474;-78
2021/10/24 02:59:58;;;;;;;0.40;0.30;;;;;;;5.69;98.67;102461.66;5055244;28;20442;-78
2021/10/24 03:02:24;;;;;;;0.40;0.30;;;;;;;5.65;98.72;102457.75;5055779;28;20445;-78
2021/10/24 03:04:52;;;;;;;0.40;0.30;;;;;;;5.65;99.03;102456.94;5054573;28;20450;-76
2021/10/24 03:07:18;;;;;;;0.40;0.30;;;;;;;5.63;98.57;102467.13;5052698;28;20474;-76
2021/10/24 03:09:45;;;;;;;0.40;0.20;;;;;;;5.66;98.83;102474.72;5052662;28;20859;-76
2021/10/24 03:12:12;;;;;;;0.40;0.30;;;;;;;5.64;98.30;102469.56;5052718;28;20453;-76
2021/10/24 03:14:38;;;;;;;0.40;0.30;;;;;;;5.68;98.44;102470.78;5052722;28;20448;-76
2021/10/24 03:17:04;;;;;;;0.40;0.20;;;;;;;5.72;98.03;102469.28;5052728;28;20462;-77
2021/10/24 03:19:31;;;;;;;0.40;0.27;;;;;;;5.73;98.83;102475.50;5053126;28;20466;-77
2021/10/24 03:21:59;;;;;;;0.40;0.30;;;;;;;5.78;99.22;102479.16;5053044;28;20442;-77
2021/10/24 03:24:25;;;;;;;0.40;0.30;;;;;;;5.88;99.15;102480.50;5053320;28;20478;-78
2021/10/24 03:26:53;;;;;;;0.40;0.30;;;;;;;5.96;99.26;102485.63;5052909;28;20980;-77
2021/10/24 03:29:19;;;;;;;0.40;0.30;;;;;;;5.97;99.26;102482.69;5053513;28;20472;-78
2021/10/24 03:31:45;;;;;;;0.40;0.30;;;;;;;5.97;99.62;102481.88;5052757;28;21010;-76
2021/10/24 03:34:13;;;;;;;0.40;0.20;;;;;;;5.99;99.25;102479.81;5052543;28;20449;-71
2021/10/24 03:36:40;;;;;;;0.40;0.30;;;;;;;5.94;99.25;102487.72;5055834;28;20449;-71
2021/10/24 03:39:08;;;;;;;0.40;0.30;;;;;;;5.93;99.65;102483.38;5056115;28;20446;-71
2021/10/24 03:41:34;;;;;;;0.40;0.30;;;;;;;5.87;99.93;102481.56;5055818;28;20967;-72
2021/10/24 03:44:01;;;;;;;0.40;0.30;;;;;;;5.77;100.00;102496.34;5056046;28;20438;-73
2021/10/24 03:46:31;;;;;;;0.40;0.30;;;;;;;5.81;100.00;102484.09;5055964;28;20442;-74
2021/10/24 03:48:57;;;;;;;0.40;0.20;;;;;;;5.91;99.76;102488.13;5055915;28;20444;-74
2021/10/24 03:51:24;;;;;;;0.40;0.30;;;;;;;5.78;99.26;102489.91;5055847;28;20481;-73
2021/10/24 03:53:50;;;;;;;0.40;0.30;;;;;;;5.79;98.80;102488.03;5055521;28;20955;-73
2021/10/24 03:56:18;;;;;;;0.40;0.20;;;;;;;5.65;98.35;102484.66;5055494;28;20446;-73
2021/10/24 03:58:44;;;;;;;0.40;0.20;;;;;;;5.46;97.87;102491.03;5055706;28;20508;-73
2021/10/24 04:01:11;;;;;;;0.40;0.30;;;;;;;5.47;98.27;102501.56;5055723;28;20438;-72
2021/10/24 04:03:38;;;;;;;0.40;0.30;;;;;;;5.41;97.97;102499.75;5055307;28;20825;-73
2021/10/24 04:06:05;;;;;;;0.40;0.30;;;;;;;5.25;98.32;102498.41;5055633;28;20442;-74
2021/10/24 04:08:31;;;;;;;0.40;0.20;;;;;;;5.21;97.98;102494.53;5055504;28;20516;-74
2021/10/24 04:10:58;;;;;;;0.40;0.20;;;;;;;5.27;97.73;102506.28;5055396;28;20482;-74
2021/10/24 04:13:25;;;;;;;0.40;0.30;;;;;;;5.29;97.59;102505.00;5055513;28;20484;-74
2021/10/24 04:15:52;;;;;;;2.97;2.77;;;;;;;5.34;97.21;102496.28;5055953;28;20438;-73
2021/10/24 04:18:18;;;;;;;0.40;0.30;;;;;;;5.27;96.95;102499.03;5055478;28;20472;-72
2021/10/24 04:20:45;;;;;;;0.40;0.30;;;;;;;5.24;98.13;102504.84;5054956;28;20807;-72
2021/10/24 04:23:11;;;;;;;0.40;0.27;;;;;;;5.32;98.19;102501.06;5055374;28;20457;-72
2021/10/24 04:25:38;;;;;;;0.40;0.30;;;;;;;5.28;97.94;102511.41;5055198;28;20457;-72
2021/10/24 04:28:05;;;;;;;0.40;0.23;;;;;;;5.25;98.59;102501.09;5054862;28;21002;-72
2021/10/24 04:30:33;;;;;;;0.40;0.30;;;;;;;5.24;98.16;102507.53;5055124;28;20493;-72
2021/10/24 04:32:59;;;;;;;0.40;0.30;;;;;;;5.19;98.48;102507.34;5055315;28;20438;-73
2021/10/24 04:35:25;;;;;;;0.40;0.30;;;;;;;5.16;98.25;102501.59;5054856;28;20936;-72
2021/10/24 04:37:52;;;;;;;0.40;0.30;;;;;;;5.12;98.41;102503.06;5054950;28;20470;-71
2021/10/24 04:40:18;;;;;;;0.40;0.30;;;;;;;5.04;98.73;102501.44;5055054;28;20434;-72
2021/10/24 04:42:45;;;;;;;0.40;0.30;;;;;;;5.06;98.82;102496.69;5054976;28;20450;-71
2021/10/24 04:45:11;;;;;;;0.40;0.30;;;;;;;5.07;98.64;102496.47;5054832;28;20458;-72
2021/10/24 04:47:39;;;;;;;0.40;0.30;;;;;;;5.07;98.16;102498.34;5054365;28;20846;-72
2021/10/24 04:50:08;;;;;;;0.40;0.30;;;;;;;4.88;97.85;102500.13;5054686;28;20449;-72
2021/10/24 04:52:36;;;;;;;0.40;0.30;;;;;;;4.79;98.22;102496.88;5054874;28;20446;-73
2021/10/24 04:55:03;;;;;;;0.40;0.20;;;;;;;4.64;97.23;102484.75;5054416;28;20795;-72
2021/10/24 04:57:30;;;;;;;0.40;0.30;;;;;;;4.55;97.65;102492.22;5054255;28;20979;-72
2021/10/24 04:59:57;;;;;;;0.40;0.30;;;;;;;4.65;97.11;102499.81;5054549;28;20454;-72
2021/10/24 05:02:23;;;;;;;0.40;0.30;;;;;;;4.62;97.12;102498.41;5054559;28;20438;-72
2021/10/24 05:04:51;;;;;;;0.40;0.30;;;;;;;4.53;96.86;102499.69;5054492;28;20814;-72
2021/10/24 05:07:17;;;;;;;0.40;0.30;;;;;;;4.48;97.14;102502.19;5054387;28;20462;-72
2021/10/24 05:09:44;;;;;;;0.40;0.30;;;;;;;4.34;97.41;102498.72;5054445;28;20445;-72
2021/10/24 05:12:10;;;;;;;0.40;0.30;;;;;;;4.33;97.36;102501.59;5054506;28;20486;-71
2021/10/24 05:14:37;;;;;;;0.40;0.30;;;;;;;4.24;97.21;102496.47;5053971;28;20944;-72
2021/10/24 05:17:04;;;;;;;0.40;0.30;;;;;;;4.20;96.95;102497.09;5054284;28;20466;-73
2021/10/24 05:19:30;;;;;;;0.40;0.30;;;;;;;4.17;97.27;102503.72;5054024;28;20458;-75
2021/10/24 05:21:58;;;;;;;1.00;1.00;;;;;;;4.27;97.12;102509.47;5054181;28;20461;-76
2021/10/24 05:24:25;;;;;;;0.40;0.27;;;;;;;4.29;97.10;102503.88;5054253;28;20446;-76
2021/10/24 05:26:52;;;;;;;0.40;0.30;;;;;;;4.30;97.29;102497.50;5054209;28;20462;-76
2021/10/24 05:29:18;;;;;;;0.40;0.27;;;;;;;4.36;97.16;102506.56;5054102;28;20477;-76
2021/10/24 05:31:45;;;;;;;0.40;0.20;;;;;;;4.40;96.94;102505.09;5053568;28;21002;-76
2021/10/24 05:34:11;;;;;;;0.40;0.30;;;;;;;4.36;96.60;102503.88;5053990;28;20450;-75
2021/10/24 05:36:37;;;;;;;0.40;0.30;;;;;;;4.25;97.26;102500.81;5053776;28;20473;-75
2021/10/24 05:39:05;;;;;;;0.40;0.30;;;;;;;4.33;97.20;102496.22;5053889;28;20443;-76
2021/10/24 05:41:32;;;;;;;0.40;0.30;;;;;;;4.30;96.95;102497.50;5053846;28;20442;-76
2021/10/24 05:43:59;;;;;;;0.40;0.30;;;;;;;4.27;96.76;102498.72;5053835;28;20526;-76
2021/10/24 05:46:25;;;;;;;0.40;0.30;;;;;;;4.29;96.79;102494.00;5053638;28;20457;-76
2021/10/24 05:48:51;;;;;;;0.40;0.30;;;;;;;4.29;96.54;102502.03;5053737;28;20809;-76
2021/10/24 05:51:18;;;;;;;0.40;0.30;;;;;;;4.23;96.57;102502.06;5053523;28;21022;-76
2021/10/24 05:53:45;;;;;;;0.40;0.30;;;;;;;4.10;95.54;102502.09;5053649;28;20443;-76
2021/10/24 05:56:13;;;;;;;0.40;0.30;;;;;;;4.13;96.18;102496.31;5053621;28;20820;-76
2021/10/24 05:58:39;;;;;;;0.40;0.30;;;;;;;4.16;96.05;102499.41;5053138;28;20876;-76
2021/10/24 06:01:06;;;;;;;0.40;0.30;;;;;;;4.18;96.54;102493.81;5053471;28;20442;-76
2021/10/24 06:03:32;;;;;;;0.40;0.20;;;;;;;4.10;96.50;102496.72;5053446;28;20447;-76
2021/10/24 06:05:59;;;;;;;0.40;0.20;;;;;;;3.98;96.35;102501.91;5053436;28;20784;-76
2021/10/24 06:08:25;;;;;;;0.40;0.30;;;;;;;3.84;96.73;102502.97;5053296;28;20474;-76
2021/10/24 06:10:54;;;;;;;0.40;0.30;;;;;;;3.82;96.54;102500.50;5052923;28;21395;-76
2021/10/24 06:13:22;;;;;;;0.40;0.30;;;;;;;3.91;96.41;102506.47;5053269;28;20997;-76
2021/10/24 06:15:49;;;;;;;0.40;0.30;;;;;;;3.82;95.96;102499.69;5053300;28;20446;-76
2021/10/24 06:18:17;;;;;;;1.17;1.17;;;;;;;3.73;96.69;102507.09;5053250;28;20466;-76
2021/10/24 06:20:44;;;;;;;0.40;0.30;;;;;;;3.66;96.95;102506.28;5053104;28;20956;-76
2021/10/24 06:23:10;;;;;;;0.40;0.27;;;;;;;3.69;97.23;102505.88;5053195;28;20442;-76
2021/10/24 06:25:37;;;;;;;0.50;0.47;;;;;;;3.73;96.81;102507.94;5053115;28;20449;-76
2021/10/24 06:28:03;;;;;;;0.40;0.30;;;;;;;3.80;96.71;102507.91;5053098;28;20462;-76
2021/10/24 06:30:31;;;;;;;0.40;0.30;;;;;;;3.73;97.45;102510.59;5053338;28;20442;-76
2021/10/24 06:32:57;;;;;;;0.40;0.30;;;;;;;3.86;97.20;102517.00;5053088;28;20465;-76
2021/10/24 06:35:24;;;;;;;0.40;0.30;;;;;;;3.99;97.29;102508.94;5053336;28;20438;-76
2021/10/24 06:37:50;;;;;;;0.40;0.30;;;;;;;4.01;98.55;102518.41;5052934;28;20458;-76
2021/10/24 06:40:19;;;;;;;0.40;0.30;;;;;;;4.04;99.19;102520.66;5053046;28;20450;-72
2021/10/24 06:42:45;;;;;;;0.40;0.30;;;;;;;4.08;100.00;102523.75;5053018;28;20468;-72
2021/10/24 06:45:13;;;;;;;0.40;0.30;;;;;;;4.19;100.00;102515.06;5053003;28;20442;-72
2021/10/24 06:47:40;;;;;;;0.40;0.30;;;;;;;4.24;100.00;102515.25;5052891;28;20470;-74
2021/10/24 06:50:09;;;;;;;0.40;0.20;;;;;;;4.45;100.00;102521.38;5052942;28;20438;-74
2021/10/24 06:52:36;;;;;;;0.60;0.60;;;;;;;4.54;100.00;102530.84;5052816;28;20830;-74
2021/10/24 06:55:04;;;;;;;0.40;0.23;;;;;;;4.61;100.00;102523.59;5052605;28;20442;-74
2021/10/24 06:57:30;;;;;;;0.40;0.30;;;;;;;4.60;100.00;102529.97;5052786;28;20516;-74
2021/10/24 06:59:57;;;;;;;0.40;0.30;;;;;;;4.66;99.58;102525.63;5052927;28;20453;-74
2021/10/24 07:02:23;;;;;;;0.40;0.30;;;;;;;4.75;99.19;102533.22;5052995;28;20438;-74
2021/10/24 07:04:51;;;;;;;0.40;0.20;;;;;;;4.76;99.87;102523.31;5052893;28;20496;-74
2021/10/24 07:07:23;;;;;;;0.40;0.30;;;;;;;4.86;99.76;102528.22;5052459;28;20987;-74
2021/10/24 07:09:49;;;;;;;0.40;0.20;;;;;;;4.92;99.67;102533.56;5053878;28;20434;-74
2021/10/24 07:12:16;;;;;;;0.40;0.30;;;;;;;5.06;99.35;102524.38;5056620;28;20573;-74
2021/10/24 07:14:42;;;;;;;0.40;0.20;;;;;;;5.07;99.73;102517.97;5056642;28;20434;-74
2021/10/24 07:17:09;;;;;;;0.40;0.30;;;;;;;5.11;100.00;102522.91;5056477;28;20461;-74
2021/10/24 07:19:35;;;;;;;0.40;0.30;;;;;;;5.20;100.00;102521.59;5056316;28;20462;-75
2021/10/24 07:22:03;;;;;;;0.40;0.20;;;;;;;5.18;100.00;102527.22;5056238;28;20492;-74
2021/10/24 07:24:30;;;;;;;0.40;0.30;;;;;;;5.24;100.00;102526.31;5056516;28;20446;-75
2021/10/24 07:26:56;;;;;;;0.40;0.30;;;;;;;5.37;100.00;102530.78;5056365;28;20466;-74
2021/10/24 07:29:22;;;;;;;0.50;0.50;;;;;;;5.45;100.00;102533.22;5056405;28;20453;-74
2021/10/24 07:31:50;;;;;;;0.40;0.30;;;;;;;5.54;100.00;102528.38;5056515;28;20481;-74
2021/10/24 07:34:16;;;;;;;0.50;0.50;;;;;;;5.65;100.00;102522.28;5056548;28;20497;-74
2021/10/24 07:36:43;;;;;;;0.40;0.30;;;;;;;5.64;100.00;102526.03;5056192;28;20442;-74
2021/10/24 07:39:10;;;;;;;0.40;0.30;;;;;;;5.80;100.00;102530.03;5055864;28;20944;-74
2021/10/24 07:41:37;;;;;;;0.73;0.73;;;;;;;5.91;100.00;102517.72;5056286;28;20803;-73
2021/10/24 07:44:06;;;;;;;0.40;0.40;;;;;;;6.04;100.00;102523.81;5075943;28;20449;-73
2021/10/24 07:46:32;;;;;;;0.40;0.30;;;;;;;6.16;100.00;102533.84;5075955;28;20437;-74
2021/10/24 07:48:58;;;;;;;4.63;3.60;;;;;;;6.35;100.00;102523.91;5076012;28;20502;-74
2021/10/24 07:51:25;;;;;;;0.40;0.30;;;;;;;6.50;100.00;102525.16;5075576;28;21002;-74
2021/10/24 07:53:52;;;;;;;0.40;0.23;;;;;;;6.58;100.00;102524.03;5075857;28;20471;-74
2021/10/24 07:56:21;;;;;;;0.40;0.30;;;;;;;6.73;100.00;102531.72;5075892;28;20495;-74
2021/10/24 07:58:47;;;;;;;0.40;0.30;;;;;;;6.88;100.00;102536.72;5075781;28;20528;-72
2021/10/24 08:01:15;;;;;;;0.40;0.30;;;;;;;7.03;100.00;102515.56;5077189;28;20441;-71
2021/10/24 08:03:41;;;;;;;0.40;0.30;;;;;;;7.11;100.00;102523.31;5075697;28;20804;-72
2021/10/24 08:06:08;;;;;;;0.40;0.40;;;;;;;7.25;100.00;102527.44;5075462;28;20465;-72
2021/10/24 08:08:35;;;;;;;4.73;4.33;;;;;;;7.37;100.00;102523.97;5075351;28;20997;-73
2021/10/24 08:11:01;;;;;;;0.40;0.30;;;;;;;7.44;100.00;102527.41;5075694;28;20475;-71
2021/10/24 08:13:29;;;;;;;0.40;0.30;;;;;;;7.55;99.92;102526.59;5075549;28;20472;-71
2021/10/24 08:15:55;;;;;;;2.60;2.50;;;;;;;7.70;99.23;102518.03;5075508;28;20445;-72
2021/10/24 08:18:22;;;;;;;0.40;0.30;;;;;;;7.86;99.21;102513.81;5075347;28;20468;-72
2021/10/24 08:20:49;;;;;;;0.40;0.30;;;;;;;7.97;98.18;102516.53;5074473;28;20449;-72
2021/10/24 08:23:16;;;;;;;0.40;0.23;;;;;;;8.08;98.11;102515.69;5075268;28;20444;-72
2021/10/24 08:25:42;;;;;;;0.40;0.30;;;;;;;8.14;96.95;102521.19;5074972;28;20449;-72
2021/10/24 08:28:09;;;;;;;0.40;0.30;;;;;;;8.15;95.49;102520.97;5074876;28;20966;-72
2021/10/24 08:30:37;;;;;;;0.40;0.30;;;;;;;8.19;95.43;102513.19;5075139;28;20495;-72
2021/10/24 08:33:03;;;;;;;0.40;0.30;;;;;;;8.24;94.88;102513.31;5074791;28;21013;-72
2021/10/24 08:35:31;;;;;;;0.40;0.30;;;;;;;8.30;94.79;102515.88;5075355;28;20453;-72
2021/10/24 08:37:57;;;;;;;0.40;0.20;;;;;;;8.39;95.02;102502.84;5075346;28;20464;-72
2021/10/24 08:40:24;;;;;;;0.40;0.30;;;;;;;8.56;94.71;102508.34;5075091;28;20445;-72
2021/10/24 08:42:57;;;;;;;0.40;0.30;;;;;;;8.74;92.89;102510.03;5075032;28;20440;-72
2021/10/24 08:45:24;;;;;;;0.53;0.53;;;;;;;8.88;90.88;102507.84;5074567;28;20781;-73
2021/10/24 08:47:53;;;;;;;0.40;0.23;;;;;;;9.01;90.38;102507.56;5074448;28;20996;-73
2021/10/24 08:50:20;;;;;;;0.40;0.20;;;;;;;9.10;89.72;102509.63;5074683;28;20458;-72
2021/10/24 08:52:51;;;;;;;0.40;0.30;;;;;;;9.17;90.12;102511.38;5074567;28;20492;-73
2021/10/24 08:55:18;;;;;;;0.40;0.30;;;;;;;9.23;89.70;102508.50;5074787;28;20430;-73
2021/10/24 08:57:47;;;;;;;0.40;0.30;;;;;;;9.33;87.87;102511.34;5074549;28;20465;-73
2021/10/24 09:00:14;;;;;;;0.50;0.50;;;;;;;9.41;88.35;102510.13;5074497;28;20536;-72
2021/10/24 09:02:56;;;;;;;0.40;0.30;;;;;;;9.48;87.32;102510.00;5074541;28;20491;-72
2021/10/24 09:05:32;;;;;;;0.40;0.30;;;;;;;9.49;87.95;102504.31;5074766;28;20441;-72
2021/10/24 09:07:59;;;;;;;0.40;0.30;;;;;;;9.60;86.92;102502.59;5074358;28;20469;-72
2021/10/24 09:10:51;;;;;;;0.40;0.30;;;;;;;9.69;86.08;102503.00;5074414;28;20445;-73
2021/10/24 09:13:20;;;;;;;0.40;0.30;;;;;;;9.75;85.79;102497.44;5059135;28;20480;-73
2021/10/24 09:15:53;;;;;;;0.40;0.40;;;;;;;9.83;84.22;102496.19;5073937;28;20950;-73
2021/10/24 09:18:23;;;;;;;0.40;0.30;;;;;;;9.86;85.07;102496.50;5074107;28;20544;-72
2021/10/24 09:20:50;;;;;;;0.40;0.30;;;;;;;9.96;84.89;102492.28;5074059;28;20803;-72
2021/10/24 09:23:17;;;;;;;0.40;0.30;;;;;;;10.04;85.13;102491.88;5074146;28;20449;-72
2021/10/24 09:25:55;;;;;;;0.40;0.30;;;;;;;10.05;83.24;102491.63;5074078;28;20436;-72
2021/10/24 09:28:24;;;;;;;0.40;0.30;;;;;;;10.09;81.19;102492.78;5074035;28;20469;-72
2021/10/24 09:31:03;;;;;;;0.50;0.47;;;;;;;10.17;82.22;102493.38;5074099;28;20437;-72
2021/10/24 09:33:45;;;;;;;0.40;0.30;;;;;;;10.18;81.03;102486.91;5073349;28;20477;-71
2021/10/24 09:36:13;;;;;;;0.40;0.30;;;;;;;10.23;82.04;102486.97;5073877;28;20912;-72
2021/10/24 09:38:40;;;;;;;0.40;0.30;;;;;;;10.20;82.73;102493.72;5073723;28;20475;-72
2021/10/24 09:41:07;;;;;;;0.40;0.30;;;;;;;10.26;82.62;102490.00;5074074;28;20536;-72
2021/10/24 09:43:34;;;;;;;0.40;0.30;;;;;;;10.36;83.06;102492.06;5073751;28;20450;-72
2021/10/24 09:46:13;;;;;;;0.40;0.30;;;;;;;10.45;82.41;102497.84;5073685;28;20437;-72
2021/10/24 09:48:44;;;;;;;1.17;1.13;;;;;;;10.50;81.51;102487.06;5073616;28;20461;-72
2021/10/24 09:51:17;;;;;;;0.40;0.30;;;;;;;10.58;81.42;102487.44;5073689;28;20608;-72
2021/10/24 09:53:46;;;;;;;0.40;0.30;;;;;;;10.61;80.44;102486.91;5073254;28;20982;-71
2021/10/24 09:56:15;;;;;;;0.40;0.30;;;;;;;10.68;80.12;102488.63;5073373;28;20441;-73
2021/10/24 09:58:43;;;;;;;0.40;0.30;;;;;;;10.70;80.10;102486.47;5073537;28;20465;-72
2021/10/24 10:01:11;;;;;;;0.40;0.30;;;;;;;10.77;77.91;102477.06;5073543;28;20449;-72
2021/10/24 10:03:38;;;;;;;0.40;0.30;;;;;;;10.85;77.88;102475.78;5073550;28;20468;-71
2021/10/24 10:06:06;;;;;;;0.40;0.20;;;;;;;10.89;76.73;102470.66;5073558;28;20447;-72
2021/10/24 10:08:34;;;;;;;0.40;0.30;;;;;;;10.94;77.86;102468.81;5073439;28;20462;-72
2021/10/24 10:11:04;;;;;;;0.40;0.30;;;;;;;10.99;78.55;102468.06;5073457;28;20536;-72
2021/10/24 10:13:34;;;;;;;0.40;0.30;;;;;;;11.09;76.80;102473.56;5073321;28;20476;-72
2021/10/24 10:16:04;;;;;;;0.40;0.20;;;;;;;11.20;77.02;102467.16;5073092;28;20479;-72
2021/10/24 10:19:00;;;;;;;0.40;0.30;;;;;;;11.26;74.54;102474.25;5073444;28;20468;-72
2021/10/24 10:21:30;;;;;;;0.40;0.30;;;;;;;11.32;74.23;102475.09;5073330;28;20442;-72
2021/10/24 10:23:58;;;;;;;0.40;0.30;;;;;;;11.36;74.08;102468.09;5073599;28;20441;-72
2021/10/24 10:26:36;;;;;;;0.40;0.30;;;;;;;11.44;74.78;102464.91;5073108;28;20449;-72
2021/10/24 10:29:04;;;;;;;0.40;0.30;;;;;;;11.49;76.51;102466.84;5073097;28;20442;-72
2021/10/24 10:31:31;;;;;;;0.40;0.30;;;;;;;11.57;73.55;102463.63;5073163;28;20947;-72
2021/10/24 10:34:00;;;;;;;0.40;0.40;;;;;;;11.66;73.73;102464.78;5073064;28;20531;-72
2021/10/24 10:36:59;;;;;;;0.50;0.50;;;;;;;11.78;72.21;102459.16;5072727;28;20525;-71
2021/10/24 10:39:44;;;;;;;0.40;0.30;;;;;;;11.91;72.88;102455.16;5072716;28;20961;-71
2021/10/24 10:42:47;;;;;;;0.40;0.30;;;;;;;12.00;71.24;102461.75;5072769;28;20976;-70
2021/10/24 10:45:36;;;;;;;0.40;0.30;;;;;;;12.01;68.51;102453.31;5076057;28;20440;-72
2021/10/24 10:48:06;;;;;;;0.40;0.30;;;;;;;12.14;70.64;102443.06;5077122;28;20476;-70
2021/10/24 10:50:45;;;;;;;0.40;0.30;;;;;;;12.28;68.48;102439.59;5077207;28;20441;-69
2021/10/24 10:53:17;;;;;;;0.40;0.30;;;;;;;12.42;69.46;102437.19;5076971;28;20491;-71
2021/10/24 10:56:21;;;;;;;0.40;0.30;;;;;;;12.55;68.94;102433.94;5077182;28;20432;-71
2021/10/24 10:58:49;;;;;;;0.40;0.27;;;;;;;12.76;68.81;102436.72;5076900;28;20472;-73
2021/10/24 11:01:35;;;;;;;0.53;0.47;;;;;;;13.02;66.53;102434.84;5076949;28;20444;-72
2021/10/24 11:04:14;;;;;;;0.40;0.30;;;;;;;13.72;65.38;102424.94;5076892;28;20436;-71
2021/10/24 11:06:56;;;;;;;0.40;0.30;;;;;;;14.55;60.35;102423.50;5077064;28;20425;-71
2021/10/24 11:09:44;;;;;;;0.40;0.20;;;;;;;14.89;58.65;102420.84;5076713;28;20446;-71
2021/10/24 11:12:30;;;;;;;0.40;0.30;;;;;;;15.48;56.79;102408.81;5076342;28;20803;-71
2021/10/24 11:15:05;;;;;;;0.40;0.30;;;;;;;15.68;54.32;102407.81;5076774;28;20460;-71
2021/10/24 11:17:37;;;;;;;0.40;0.27;;;;;;;15.51;54.53;102413.72;5076703;28;20461;-71
2021/10/24 11:20:18;;;;;;;0.40;0.20;;;;;;;15.84;54.15;102401.06;5076211;28;20453;-71
2021/10/24 11:22:47;;;;;;;0.40;0.30;;;;;;;16.46;51.36;102405.72;5076687;28;20464;-70
2021/10/24 11:25:30;;;;;;;0.40;0.27;;;;;;;16.76;49.58;102402.53;5076553;28;20444;-71
2021/10/24 11:27:59;;;;;;;0.40;0.30;;;;;;;17.44;49.07;102405.75;5076428;28;20461;-71
2021/10/24 11:30:25;;;;;;;0.40;0.30;;;;;;;18.06;48.05;102403.44;5076452;28;20449;-74
2021/10/24 11:32:55;;;;;;;0.40;0.30;;;;;;;18.38;44.73;102406.03;5076092;28;20842;-70
2021/10/24 11:35:24;;;;;;;0.40;0.20;;;;;;;18.21;44.79;102394.88;5076317;28;20828;-73